Time;durP1;ratioP1;P1;durP2;ratioP2;P2;SDS_P1;SDS_P2;PMS_P1;PMS_P2;Temp;Humidity;BMP_temperature;BMP_pressure;BME280_temperature;BME280_humidity;BME280_pressure;Samples;Min_cycle;Max_cycle;Signal;HPM_P1;HPM_P2
2021/08/20 00:01:24;;;;;;;9.35;6.88;;;;;;;18.17;70.42;100214.00;5025995;28;20064;-58
2021/08/20 00:03:53;;;;;;;9.45;6.35;;;;;;;18.17;70.16;100216.00;5033226;28;20053;-58
2021/08/20 00:06:21;;;;;;;7.13;6.40;;;;;;;18.10;70.52;100215.84;5015279;28;20069;-54
2021/08/20 00:08:48;;;;;;;8.32;6.78;;;;;;;18.08;70.64;100213.41;5020228;28;20050;-55
2021/08/20 00:11:16;;;;;;;8.10;7.07;;;;;;;17.98;70.78;100203.53;5033511;28;20057;-53
2021/08/20 00:13:43;;;;;;;11.50;7.35;;;;;;;17.97;71.04;100201.91;5031606;28;20545;-57
2021/08/20 00:16:13;;;;;;;8.73;6.65;;;;;;;17.93;70.79;100208.66;5023362;28;20053;-55
2021/08/20 00:18:40;;;;;;;9.13;7.10;;;;;;;17.84;71.50;100204.06;5014224;28;20418;-58
2021/08/20 00:21:09;;;;;;;9.52;7.28;;;;;;;17.82;71.51;100205.59;5014900;28;20065;-53
2021/08/20 00:23:36;;;;;;;10.43;7.90;;;;;;;17.75;71.74;100206.25;5014364;28;20153;-54
2021/08/20 00:26:04;;;;;;;9.77;7.13;;;;;;;17.72;72.02;100209.78;5026280;28;20049;-54
2021/08/20 00:28:32;;;;;;;9.82;7.32;;;;;;;17.71;72.27;100204.56;5020376;28;20057;-57
2021/08/20 00:31:00;;;;;;;9.48;6.85;;;;;;;17.71;72.43;100210.19;5034470;28;20053;-56
2021/08/20 00:33:27;;;;;;;8.82;6.82;;;;;;;17.72;72.22;100209.00;5032539;28;20046;-57
2021/08/20 00:35:55;;;;;;;10.25;7.78;;;;;;;17.70;72.64;100200.09;5014857;28;20056;-59
2021/08/20 00:38:24;;;;;;;10.48;7.70;;;;;;;17.71;72.66;100210.19;5021722;28;20057;-56
2021/08/20 00:40:51;;;;;;;8.98;7.07;;;;;;;17.65;72.63;100204.81;5034496;28;20490;-58
2021/08/20 00:43:19;;;;;;;10.07;7.53;;;;;;;17.64;72.62;100210.84;5026300;28;20061;-58
2021/08/20 00:45:55;;;;;;;10.35;7.65;;;;;;;17.61;72.73;100209.56;5022166;28;20077;-59
2021/08/20 00:48:22;;;;;;;10.05;7.70;;;;;;;17.58;72.75;100201.88;5022539;28;20057;-56
2021/08/20 00:50:51;;;;;;;11.35;8.20;;;;;;;17.59;73.02;100206.31;5029199;28;20061;-59
2021/08/20 00:53:18;;;;;;;9.77;7.88;;;;;;;17.58;73.26;100206.69;5031381;28;20060;-57
2021/08/20 00:55:48;;;;;;;9.82;8.10;;;;;;;17.61;73.28;100200.31;5021527;28;20494;-56
2021/08/20 00:58:15;;;;;;;8.68;7.75;;;;;;;17.63;73.20;100203.56;5025188;28;20057;-54
2021/08/20 01:00:43;;;;;;;9.50;7.45;;;;;;;17.65;73.27;100193.56;5020419;28;20392;-55
2021/08/20 01:03:10;;;;;;;9.35;7.55;;;;;;;17.68;73.18;100199.63;5033870;28;20060;-58
2021/08/20 01:05:38;;;;;;;10.40;7.47;;;;;;;17.69;73.30;100195.66;5014755;28;20053;-55
2021/08/20 01:08:07;;;;;;;8.50;7.05;;;;;;;17.40;74.47;100207.09;5014949;28;20054;-55
2021/08/20 01:10:34;;;;;;;9.70;7.40;;;;;;;17.61;73.66;100208.75;5014316;28;20054;-58
2021/08/20 01:13:03;;;;;;;8.40;6.82;;;;;;;17.66;73.37;100205.66;5017220;28;20053;-58
2021/08/20 01:15:31;;;;;;;10.57;7.40;;;;;;;17.71;73.35;100207.38;5030098;28;20056;-57
2021/08/20 01:17:58;;;;;;;9.65;7.90;;;;;;;17.69;73.35;100204.91;5027983;28;20052;-57
2021/08/20 01:20:26;;;;;;;9.63;7.40;;;;;;;17.65;73.49;100204.81;5026581;28;20525;-55
2021/08/20 01:22:53;;;;;;;9.82;8.75;;;;;;;17.63;73.73;100203.56;5014011;28;20057;-56
2021/08/20 01:25:22;;;;;;;10.68;8.10;;;;;;;17.70;73.28;100203.75;5015676;28;20050;-56
2021/08/20 01:27:49;;;;;;;9.57;7.82;;;;;;;17.68;73.50;100199.63;5014230;28;20491;-59
2021/08/20 01:30:17;;;;;;;10.63;8.52;;;;;;;17.72;73.19;100201.34;5024472;28;20053;-59
2021/08/20 01:32:44;;;;;;;9.93;8.15;;;;;;;17.74;73.12;100206.63;5033519;28;20053;-59
2021/08/20 01:35:15;;;;;;;11.80;8.90;;;;;;;17.79;73.03;100201.50;5029219;28;20064;-58
2021/08/20 01:37:42;;;;;;;9.95;7.93;;;;;;;17.79;72.94;100195.88;5016203;28;20052;-56
2021/08/20 01:40:11;;;;;;;9.80;7.95;;;;;;;17.82;72.75;100191.50;5013576;28;20054;-57
2021/08/20 01:42:40;;;;;;;9.10;8.20;;;;;;;17.76;72.93;100190.16;5013557;28;20057;-53
2021/08/20 01:45:08;;;;;;;9.70;7.70;;;;;;;17.77;72.79;100189.78;5012967;28;20060;-56
2021/08/20 01:47:35;;;;;;;8.13;7.30;;;;;;;17.78;72.70;100196.25;5013708;28;20379;-56
2021/08/20 01:50:04;;;;;;;10.35;7.75;;;;;;;17.77;72.89;100195.44;5028710;28;20058;-55
2021/08/20 01:52:31;;;;;;;10.40;7.78;;;;;;;17.81;72.55;100190.69;5013897;28;20050;-56
2021/08/20 01:54:58;;;;;;;7.65;6.80;;;;;;;17.80;72.57;100196.69;5024808;28;20064;-57
2021/08/20 01:57:25;;;;;;;10.05;7.28;;;;;;;17.80;72.55;100185.41;5024988;28;20061;-59
2021/08/20 01:59:54;;;;;;;9.77;6.95;;;;;;;17.77;72.65;100186.16;5012764;28;20054;-55
2021/08/20 02:02:21;;;;;;;10.33;8.00;;;;;;;17.73;72.62;100190.91;5014400;28;20064;-56
2021/08/20 02:04:49;;;;;;;10.10;7.43;;;;;;;17.62;73.04;100185.88;5019950;28;20465;-58
2021/08/20 02:07:16;;;;;;;8.88;7.97;;;;;;;17.61;72.91;100184.22;5015577;28;20054;-55
2021/08/20 02:09:47;;;;;;;9.77;7.30;;;;;;;17.61;72.97;100192.66;5012958;28;20136;-58
2021/08/20 02:12:14;;;;;;;8.68;7.43;;;;;;;17.50;73.45;100190.81;5013131;28;20050;-59
2021/08/20 02:14:41;;;;;;;8.15;7.18;;;;;;;17.49;73.38;100198.47;5019612;28;20049;-58
2021/08/20 02:17:10;;;;;;;8.43;7.45;;;;;;;17.52;73.38;100205.34;5032675;28;20052;-54
2021/08/20 02:19:37;;;;;;;9.67;7.50;;;;;;;17.48;73.42;100210.88;5026285;28;20042;-59
2021/08/20 02:22:06;;;;;;;9.15;7.18;;;;;;;17.54;73.16;100205.78;5013309;28;20061;-59
2021/08/20 02:24:34;;;;;;;9.85;7.35;;;;;;;17.63;72.63;100198.75;5012733;28;20065;-59
2021/08/20 02:27:01;;;;;;;9.82;7.90;;;;;;;17.58;73.05;100199.06;5026937;28;20056;-57
2021/08/20 02:29:28;;;;;;;9.18;8.20;;;;;;;17.60;72.87;100193.88;5030843;28;20054;-56
2021/08/20 02:31:56;;;;;;;10.13;9.13;;;;;;;17.68;72.17;100202.47;5014624;28;20077;-55
2021/08/20 02:34:24;;;;;;;10.13;9.13;;;;;;;17.68;72.25;100200.47;5011762;28;20053;-57
2021/08/20 02:36:52;;;;;;;11.10;9.47;;;;;;;17.72;71.98;100201.34;5024162;28;20037;-58
2021/08/20 02:39:19;;;;;;;11.02;9.75;;;;;;;17.54;72.69;100209.41;5027462;28;20488;-54
2021/08/20 02:41:46;;;;;;;12.48;11.05;;;;;;;17.67;72.35;100195.22;5012060;28;20053;-57
2021/08/20 02:44:15;;;;;;;13.30;11.55;;;;;;;17.70;72.10;100200.94;5012518;28;20053;-54
2021/08/20 02:46:44;;;;;;;14.38;12.05;;;;;;;17.72;71.87;100206.16;5030142;28;20050;-58
2021/08/20 02:49:11;;;;;;;15.18;12.82;;;;;;;17.80;71.46;100208.75;5033102;28;20053;-57
2021/08/20 02:51:40;;;;;;;13.48;12.07;;;;;;;17.84;71.26;100198.41;5015405;28;20398;-58
2021/08/20 02:54:07;;;;;;;13.23;11.93;;;;;;;17.82;71.31;100200.78;5012959;28;20078;-58
2021/08/20 02:56:38;;;;;;;14.25;12.88;;;;;;;17.96;71.00;100205.09;5012063;28;20057;-57
2021/08/20 02:59:05;;;;;;;17.23;13.88;;;;;;;17.85;70.99;100202.88;5013017;28;20057;-57
2021/08/20 03:01:33;;;;;;;16.45;14.25;;;;;;;17.78;71.58;100205.50;5012030;28;20065;-57
2021/08/20 03:04:00;;;;;;;15.60;14.00;;;;;;;17.80;71.54;100208.75;5012832;28;20054;-59
2021/08/20 03:06:29;;;;;;;16.98;15.18;;;;;;;17.72;71.56;100211.81;5011615;28;20053;-58
2021/08/20 03:08:58;;;;;;;18.63;15.05;;;;;;;17.77;71.24;100209.53;5012232;28;20058;-58
2021/08/20 03:11:25;;;;;;;17.67;15.73;;;;;;;17.63;71.89;100217.66;5027914;28;20065;-59
2021/08/20 03:13:53;;;;;;;18.00;16.02;;;;;;;17.66;71.58;100214.13;5025443;28;20491;-58
2021/08/20 03:16:20;;;;;;;17.45;14.80;;;;;;;17.61;71.92;100222.84;5015257;28;20061;-58
2021/08/20 03:18:51;;;;;;;18.15;15.20;;;;;;;17.78;71.34;100213.94;5011902;28;20456;-59
2021/08/20 03:21:18;;;;;;;17.80;15.55;;;;;;;17.89;71.10;100214.22;5025342;28;20053;-58
2021/08/20 03:23:46;;;;;;;19.38;17.27;;;;;;;17.93;71.08;100217.09;5026794;28;20061;-57
2021/08/20 03:26:14;;;;;;;20.98;17.05;;;;;;;17.93;70.79;100214.28;5011782;28;20487;-56
2021/08/20 03:28:42;;;;;;;20.23;16.90;;;;;;;17.99;70.61;100212.81;5011937;28;20054;-58
2021/08/20 03:31:09;;;;;;;19.60;16.52;;;;;;;18.06;70.64;100215.78;5029966;28;20049;-57
2021/08/20 03:33:36;;;;;;;21.95;17.67;;;;;;;17.94;70.73;100213.13;5026837;28;20069;-57
2021/08/20 03:36:04;;;;;;;22.48;19.20;;;;;;;17.80;71.08;100214.41;5012074;28;20053;-58
2021/08/20 03:38:31;;;;;;;20.65;18.20;;;;;;;17.89;70.87;100211.41;5011983;28;20069;-58
2021/08/20 03:40:59;;;;;;;21.98;18.20;;;;;;;17.96;70.52;100214.38;5012188;28;20474;-57
2021/08/20 03:43:28;;;;;;;23.38;18.95;;;;;;;17.96;70.76;100224.84;5012486;28;20407;-58
2021/08/20 03:45:55;;;;;;;;;;;;;;;18.00;70.36;100231.38;5034519;28;20054;-55
2021/08/20 03:48:23;;;;;;;23.23;19.17;;;;;;;18.05;70.36;100226.22;5034601;28;19928;-59
2021/08/20 03:50:50;;;;;;;22.35;19.80;;;;;;;17.96;70.49;100231.28;5033522;28;20084;-58
2021/08/20 03:53:17;;;;;;;22.20;19.13;;;;;;;18.02;70.22;100234.63;5035434;28;20053;-56
2021/08/20 03:55:44;;;;;;;22.25;19.35;;;;;;;17.95;70.44;100231.66;5025551;28;20499;-58
2021/08/20 03:58:13;;;;;;;25.88;19.77;;;;;;;17.97;70.29;100244.16;5031761;28;20049;-59
2021/08/20 04:00:44;;;;;;;25.85;21.42;;;;;;;17.98;70.03;100242.19;5015129;28;20068;-58
2021/08/20 04:03:11;;;;;;;23.40;19.52;;;;;;;17.93;70.03;100248.09;5030179;28;20053;-59
2021/08/20 04:05:38;;;;;;;24.83;20.65;;;;;;;17.85;70.46;100256.41;5015769;28;20054;-57
2021/08/20 04:08:06;;;;;;;26.95;21.92;;;;;;;17.80;70.54;100253.84;5024419;28;20049;-58
2021/08/20 04:10:33;;;;;;;25.40;20.90;;;;;;;17.73;70.72;100248.06;5032621;28;20045;-58
2021/08/20 04:13:00;;;;;;;25.70;20.63;;;;;;;17.76;70.77;100252.13;5030095;28;20537;-57
2021/08/20 04:15:28;;;;;;;26.48;21.85;;;;;;;17.65;71.12;100257.53;5030675;28;20065;-57
2021/08/20 04:17:56;;;;;;;26.63;22.40;;;;;;;17.74;70.68;100249.69;5035555;28;20049;-57
2021/08/20 04:20:24;;;;;;;27.87;21.63;;;;;;;17.62;71.12;100252.66;5017824;28;20054;-56
2021/08/20 04:22:53;;;;;;;25.27;21.75;;;;;;;17.66;71.22;100253.56;5019462;28;20483;-59
2021/08/20 04:25:20;;;;;;;27.05;21.48;;;;;;;17.74;70.80;100263.75;5033999;28;20054;-58
2021/08/20 04:27:48;;;;;;;26.40;21.17;;;;;;;17.68;70.80;100262.44;5034141;28;20430;-57
2021/08/20 04:30:18;;;;;;;25.85;21.55;;;;;;;17.76;70.39;100264.22;5032365;28;20058;-58
2021/08/20 04:32:45;;;;;;;26.08;20.98;;;;;;;17.75;70.15;100268.22;5034792;28;20057;-59
2021/08/20 04:35:14;;;;;;;28.48;22.42;;;;;;;17.73;70.62;100270.59;5026253;28;20053;-59
2021/08/20 04:37:42;;;;;;;27.15;21.65;;;;;;;17.80;69.90;100264.31;5014497;28;20046;-58
2021/08/20 04:40:10;;;;;;;23.73;19.80;;;;;;;17.75;70.83;100270.25;5014172;28;20061;-56
2021/08/20 04:42:37;;;;;;;27.88;21.85;;;;;;;17.61;70.87;100277.16;5014526;28;20065;-58
2021/08/20 04:45:06;;;;;;;29.25;23.38;;;;;;;17.73;70.38;100273.41;5014003;28;20058;-58
2021/08/20 04:47:35;;;;;;;28.20;22.70;;;;;;;17.68;70.25;100272.88;5014322;28;20050;-59
2021/08/20 04:50:04;;;;;;;;;;;;;;;17.63;70.19;100266.34;5014051;28;20601;-58
2021/08/20 04:52:32;;;;;;;27.17;21.80;;;;;;;17.59;70.56;100275.91;5014231;28;19921;-58
2021/08/20 04:55:00;;;;;;;30.33;22.50;;;;;;;17.58;70.34;100277.09;5018312;28;20486;-59
2021/08/20 04:57:27;;;;;;;27.40;21.35;;;;;;;17.46;70.81;100275.22;5033426;28;20045;-56
2021/08/20 04:59:55;;;;;;;28.98;22.00;;;;;;;17.52;70.63;100275.75;5029856;28;20094;-55
2021/08/20 05:02:22;;;;;;;29.60;22.73;;;;;;;17.51;70.59;100274.09;5015786;28;20082;-58
2021/08/20 05:04:50;;;;;;;27.05;21.77;;;;;;;17.45;71.00;100282.84;5014414;28;20058;-59
2021/08/20 05:07:17;;;;;;;30.42;22.50;;;;;;;17.62;70.38;100283.63;5013660;28;20054;-58
2021/08/20 05:09:46;;;;;;;28.95;22.85;;;;;;;17.45;70.95;100282.84;5024318;28;20061;-58
2021/08/20 05:12:13;;;;;;;30.63;23.42;;;;;;;17.65;69.96;100280.06;5020157;28;20467;-58
2021/08/20 05:14:41;;;;;;;31.65;24.85;;;;;;;17.76;69.71;100286.75;5021025;28;21048;-59
2021/08/20 05:17:08;;;;;;;29.73;22.88;;;;;;;17.80;69.37;100292.47;5013083;28;20525;-56
2021/08/20 05:19:35;;;;;;;30.55;23.83;;;;;;;17.81;69.30;100289.31;5016681;28;20045;-54
2021/08/20 05:22:03;;;;;;;30.83;23.55;;;;;;;17.74;69.44;100293.94;5022179;28;20061;-59
2021/08/20 05:24:30;;;;;;;30.65;22.05;;;;;;;17.90;68.87;100296.75;5016486;28;20486;-57
2021/08/20 05:26:59;;;;;;;31.45;22.55;;;;;;;17.93;68.78;100291.22;5022441;28;20045;-57
2021/08/20 05:29:26;;;;;;;32.47;23.97;;;;;;;18.04;68.27;100288.63;5023088;28;20379;-58
2021/08/20 05:31:53;;;;;;;31.30;24.17;;;;;;;18.03;68.27;100301.06;5024304;28;20841;-58
2021/08/20 05:34:21;;;;;;;29.08;22.15;;;;;;;18.18;67.81;100291.72;5014110;28;20050;-57
2021/08/20 05:36:49;;;;;;;30.98;22.63;;;;;;;18.23;67.45;100294.25;5022777;28;20136;-58
2021/08/20 05:39:16;;;;;;;30.95;23.17;;;;;;;18.04;67.26;100299.91;5014657;28;20046;-57
2021/08/20 05:41:43;;;;;;;29.40;23.13;;;;;;;18.14;66.97;100299.31;5020998;28;20057;-57
2021/08/20 05:44:12;;;;;;;28.88;22.52;;;;;;;18.28;66.57;100293.13;5020168;28;20049;-55
2021/08/20 05:46:39;;;;;;;29.50;21.63;;;;;;;18.22;66.30;100298.25;5022143;28;20058;-58
2021/08/20 05:49:09;;;;;;;27.73;21.10;;;;;;;18.25;66.29;100299.53;5014403;28;20069;-59
2021/08/20 05:51:36;;;;;;;29.27;22.02;;;;;;;18.24;66.13;100300.72;5013292;28;20053;-57
2021/08/20 05:54:04;;;;;;;26.48;21.23;;;;;;;18.03;67.16;100299.06;5012599;28;20065;-58
2021/08/20 05:56:31;;;;;;;26.45;20.27;;;;;;;18.18;66.44;100307.81;5010525;28;20061;-59
2021/08/20 05:58:58;;;;;;;26.83;19.70;;;;;;;18.29;66.04;100313.69;5018911;28;20057;-57
2021/08/20 06:01:30;;;;;;;25.20;19.40;;;;;;;18.21;66.71;100319.19;5019147;28;20049;-59
2021/08/20 06:03:57;;;;;;;24.55;18.02;;;;;;;18.34;66.60;100313.41;5016906;28;20462;-56
2021/08/20 06:06:25;;;;;;;23.88;17.88;;;;;;;18.38;66.30;100317.94;5016116;28;20525;-56
2021/08/20 06:08:53;;;;;;;21.08;16.85;;;;;;;18.57;65.76;100321.94;5015503;28;20149;-57
2021/08/20 06:11:20;;;;;;;20.88;17.17;;;;;;;18.78;65.10;100318.72;5012248;28;20050;-55
2021/08/20 06:13:49;;;;;;;22.48;17.17;;;;;;;18.91;64.78;100313.72;5018284;28;20054;-55
2021/08/20 06:16:16;;;;;;;23.00;16.60;;;;;;;19.08;64.10;100306.78;5020357;28;20520;-58
2021/08/20 06:18:45;;;;;;;19.65;16.17;;;;;;;19.06;64.14;100322.06;5031829;28;20829;-56
2021/08/20 06:21:13;;;;;;;18.58;15.55;;;;;;;19.00;64.52;100317.97;5019357;28;20061;-59
2021/08/20 06:23:40;;;;;;;21.17;16.35;;;;;;;19.04;64.23;100318.81;5011642;28;20065;-57
2021/08/20 06:26:08;;;;;;;20.52;14.50;;;;;;;19.26;63.38;100311.53;5011404;28;20387;-59
2021/08/20 06:28:35;;;;;;;18.50;14.52;;;;;;;19.42;63.24;100307.75;5011458;28;20042;-57
2021/08/20 06:31:04;;;;;;;17.67;14.25;;;;;;;19.32;63.55;100312.03;5017879;28;20057;-56
2021/08/20 06:33:31;;;;;;;17.10;14.18;;;;;;;19.59;62.30;100320.53;5015263;28;20057;-59
2021/08/20 06:36:00;;;;;;;18.48;14.02;;;;;;;20.03;61.38;100314.34;5014394;28;20537;-59
2021/08/20 06:38:28;;;;;;;21.30;15.52;;;;;;;20.03;60.83;100314.34;5016259;28;20050;-56
2021/08/20 06:40:55;;;;;;;17.38;13.25;;;;;;;19.90;61.01;100327.09;5012600;28;20053;-59
2021/08/20 06:43:23;;;;;;;18.92;14.85;;;;;;;19.84;61.36;100326.59;5012840;28;20049;-57
2021/08/20 06:45:51;;;;;;;17.17;13.55;;;;;;;19.76;61.53;100319.19;5014767;28;20064;-57
2021/08/20 06:48:19;;;;;;;18.13;13.77;;;;;;;19.73;62.11;100314.31;5012449;28;20058;-59
2021/08/20 06:50:47;;;;;;;19.10;13.77;;;;;;;19.95;61.07;100323.91;5010730;28;20041;-58
2021/08/20 06:53:16;;;;;;;18.90;13.80;;;;;;;20.02;60.78;100322.00;5015812;28;20058;-58
2021/08/20 06:55:43;;;;;;;17.35;14.18;;;;;;;20.04;61.08;100327.28;5023281;28;20053;-59
2021/08/20 06:58:10;;;;;;;17.20;13.40;;;;;;;20.31;60.39;100321.59;5022620;28;20060;-60
2021/08/20 07:00:38;;;;;;;16.88;12.75;;;;;;;20.22;60.65;100328.34;5030029;28;20056;-60
2021/08/20 07:03:05;;;;;;;14.88;12.13;;;;;;;20.47;60.10;100327.84;5028914;28;20494;-59
2021/08/20 07:05:33;;;;;;;16.67;13.02;;;;;;;20.24;60.54;100334.44;5031477;28;20060;-60
2021/08/20 07:08:00;;;;;;;18.85;13.30;;;;;;;20.39;60.07;100328.94;5031717;28;20054;-59
2021/08/20 07:10:29;;;;;;;17.10;12.25;;;;;;;20.29;60.84;100333.28;5037128;28;20053;-60
2021/08/20 07:12:56;;;;;;;17.27;13.60;;;;;;;20.39;60.55;100329.78;5028577;28;20490;-59
2021/08/20 07:15:23;;;;;;;15.95;12.13;;;;;;;20.72;59.82;100324.53;5028949;28;20056;-59
2021/08/20 07:17:51;;;;;;;17.88;12.93;;;;;;;20.94;58.92;100326.38;5025000;28;20073;-59
2021/08/20 07:20:18;;;;;;;16.58;12.63;;;;;;;21.13;58.31;100330.22;5030458;28;20052;-59
2021/08/20 07:22:45;;;;;;;14.88;11.88;;;;;;;21.48;57.25;100326.88;5025813;28;20410;-59
2021/08/20 07:25:13;;;;;;;14.80;12.10;;;;;;;22.22;55.20;100324.97;5021789;28;20064;-59
2021/08/20 07:27:42;;;;;;;13.85;11.82;;;;;;;22.99;52.92;100325.63;5024164;28;20057;-59
2021/08/20 07:30:10;;;;;;;12.75;10.50;;;;;;;23.06;53.01;100328.53;5032323;28;20060;-59
2021/08/20 07:32:38;;;;;;;13.32;11.18;;;;;;;22.94;53.32;100323.19;5039679;28;20082;-59
2021/08/20 07:35:06;;;;;;;16.65;12.18;;;;;;;22.70;53.00;100324.78;5035504;28;20398;-60
2021/08/20 07:37:34;;;;;;;15.23;12.30;;;;;;;23.06;52.66;100320.00;5045475;28;20401;-60
2021/08/20 07:40:01;;;;;;;14.32;11.23;;;;;;;23.66;50.63;100321.22;5039065;28;20068;-53
2021/08/20 07:42:29;;;;;;;14.60;11.73;;;;;;;24.20;48.74;100318.28;5040102;28;20413;-59
2021/08/20 07:44:58;;;;;;;13.68;10.48;;;;;;;24.57;48.13;100313.28;5034212;28;20057;-60
2021/08/20 07:47:25;;;;;;;19.20;11.48;;;;;;;24.09;49.38;100311.81;5033891;28;20071;-60
2021/08/20 07:49:53;;;;;;;13.70;10.88;;;;;;;24.19;49.53;100318.69;5031675;28;20054;-60
2021/08/20 07:52:20;;;;;;;13.45;10.70;;;;;;;24.08;49.39;100315.88;5029035;28;20049;-60
2021/08/20 07:54:49;;;;;;;15.63;11.80;;;;;;;23.60;50.19;100319.19;5035061;28;20106;-60
2021/08/20 07:57:16;;;;;;;14.20;10.73;;;;;;;23.28;51.40;100331.38;5032127;28;20064;-60
2021/08/20 07:59:44;;;;;;;13.50;11.70;;;;;;;23.10;52.32;100331.38;5035718;28;20372;-60
2021/08/20 08:02:12;;;;;;;16.45;11.88;;;;;;;22.81;52.60;100339.81;5024691;28;20054;-59
2021/08/20 08:04:42;;;;;;;13.95;12.38;;;;;;;22.73;53.08;100335.31;5035085;28;20049;-59
2021/08/20 08:07:09;;;;;;;12.52;11.23;;;;;;;22.92;53.60;100339.81;5042563;28;20053;-59
2021/08/20 08:09:36;;;;;;;18.67;12.98;;;;;;;22.95;53.57;100349.56;5028566;28;20481;-60
2021/08/20 08:12:04;;;;;;;17.15;12.70;;;;;;;23.02;53.34;100343.94;5027339;28;20374;-59
2021/08/20 08:14:32;;;;;;;14.68;13.23;;;;;;;22.95;53.31;100353.25;5030499;28;20132;-62
2021/08/20 08:16:59;;;;;;;14.77;13.25;;;;;;;22.99;53.88;100354.03;5036078;28;20467;-59
2021/08/20 08:19:28;;;;;;;16.63;13.52;;;;;;;22.94;53.79;100360.13;5030169;28;20057;-59
2021/08/20 08:21:55;;;;;;;15.38;13.35;;;;;;;23.02;53.70;100358.16;5031609;28;20053;-59
2021/08/20 08:24:22;;;;;;;15.45;13.27;;;;;;;23.24;53.50;100359.78;5019331;28;20402;-59
2021/08/20 08:26:50;;;;;;;16.08;13.02;;;;;;;23.37;52.69;100370.78;5035023;28;20128;-59
2021/08/20 08:29:17;;;;;;;15.02;11.77;;;;;;;23.40;52.89;100370.78;5029147;28;20049;-59
2021/08/20 08:31:44;;;;;;;14.20;12.70;;;;;;;23.37;53.40;100365.91;5035001;28;20398;-59
2021/08/20 08:34:11;;;;;;;15.05;12.30;;;;;;;23.60;52.83;100365.53;5019534;28;20057;-59
2021/08/20 08:36:40;;;;;;;13.70;12.32;;;;;;;23.85;52.38;100367.53;5026641;28;20049;-59
2021/08/20 08:39:08;;;;;;;14.95;11.77;;;;;;;24.18;52.00;100354.88;5035327;28;20052;-62
2021/08/20 08:41:36;;;;;;;12.07;10.82;;;;;;;24.50;50.74;100366.19;5030990;28;20532;-60
2021/08/20 08:44:03;;;;;;;14.25;11.23;;;;;;;24.60;50.82;100366.56;5023200;28;20485;-60
2021/08/20 08:46:36;;;;;;;14.15;11.40;;;;;;;24.46;51.41;100367.41;5015707;28;20050;-61
2021/08/20 08:49:04;;;;;;;17.45;12.35;;;;;;;24.65;49.79;100361.25;5018220;28;20053;-61
2021/08/20 08:51:32;;;;;;;13.73;12.32;;;;;;;24.49;49.41;100370.28;5031345;28;20058;-61
2021/08/20 08:54:01;;;;;;;14.98;11.18;;;;;;;24.65;49.59;100361.25;5034543;28;20060;-61
2021/08/20 08:56:28;;;;;;;12.98;10.10;;;;;;;26.04;45.19;100352.94;5032753;28;20064;-60
2021/08/20 08:58:55;;;;;;;10.70;9.60;;;;;;;28.29;40.93;100353.69;5022509;28;20050;-59
2021/08/20 09:01:31;;;;;;;9.70;8.70;;;;;;;29.87;37.51;100355.06;5027467;28;20057;-60
2021/08/20 09:04:12;;;;;;;10.20;9.20;;;;;;;30.23;35.67;100348.34;5023495;28;20053;-62
2021/08/20 09:06:41;;;;;;;8.35;7.53;;;;;;;31.33;33.09;100360.66;5031379;28;20042;-59
2021/08/20 09:09:11;;;;;;;8.88;7.97;;;;;;;33.75;29.77;100352.09;5034707;28;20387;-59
2021/08/20 09:11:39;;;;;;;9.15;8.25;;;;;;;33.16;30.43;100354.13;5032474;28;20064;-59
2021/08/20 09:14:07;;;;;;;9.32;7.90;;;;;;;32.99;30.98;100349.81;5032366;28;20064;-59
2021/08/20 09:16:39;;;;;;;8.98;7.68;;;;;;;33.95;29.69;100351.59;5026749;28;20060;-59
2021/08/20 09:19:15;;;;;;;9.10;7.43;;;;;;;35.87;26.74;100342.13;5017311;28;20049;-62
2021/08/20 09:21:46;;;;;;;8.02;7.20;;;;;;;35.19;27.20;100351.34;5017035;28;20061;-60
2021/08/20 09:24:35;;;;;;;9.32;8.40;;;;;;;35.72;27.02;100339.19;5025771;28;20062;-59
2021/08/20 09:27:24;;;;;;;8.18;7.13;;;;;;;34.54;27.54;100350.66;5028796;28;20060;-60
2021/08/20 09:29:57;;;;;;;8.80;7.90;;;;;;;34.50;27.25;100345.06;5032455;28;20056;-59
2021/08/20 09:32:25;;;;;;;8.07;7.38;;;;;;;33.13;29.62;100355.84;5026658;28;20057;-59
2021/08/20 09:34:54;;;;;;;7.75;6.97;;;;;;;33.54;30.38;100353.78;5028827;28;20052;-59
2021/08/20 09:37:21;;;;;;;;;;;;;;;34.00;28.94;100355.16;5033761;28;20049;-60
2021/08/20 09:39:56;;;;;;;8.67;7.73;;;;;;;34.49;28.79;100348.44;5026056;28;19929;-60
2021/08/20 09:42:23;;;;;;;7.35;6.50;;;;;;;35.63;25.50;100350.00;5031360;28;20056;-60
2021/08/20 09:45:16;;;;;;;6.70;6.10;;;;;;;37.14;23.06;100346.41;5032854;28;20060;-60
2021/08/20 09:47:45;;;;;;;5.50;5.00;;;;;;;38.17;22.76;100356.09;5023284;28;20553;-60
2021/08/20 09:50:13;;;;;;;6.80;5.38;;;;;;;35.75;24.50;100352.66;5028341;28;20056;-60
2021/08/20 09:52:40;;;;;;;6.65;6.05;;;;;;;36.16;24.35;100355.13;5021489;28;20053;-60
2021/08/20 09:55:10;;;;;;;7.22;6.00;;;;;;;35.72;23.42;100355.75;5030004;28;20056;-61
2021/08/20 09:57:39;;;;;;;6.05;5.45;;;;;;;33.57;27.29;100355.69;5021116;28;20520;-62
2021/08/20 10:00:10;;;;;;;5.72;5.10;;;;;;;33.05;28.42;100357.38;5031004;28;20060;-60
2021/08/20 10:02:41;;;;;;;7.43;6.05;;;;;;;33.17;27.84;100356.53;5032774;28;20060;-60
2021/08/20 10:05:14;;;;;;;5.90;5.25;;;;;;;32.08;29.51;100351.59;5028725;28;20053;-60
2021/08/20 10:07:42;;;;;;;6.35;5.75;;;;;;;30.97;31.60;100341.66;5028171;28;20164;-60
2021/08/20 10:10:11;;;;;;;7.07;6.38;;;;;;;30.90;31.42;100350.53;5029271;28;20052;-60
2021/08/20 10:12:41;;;;;;;6.40;5.80;;;;;;;32.05;31.52;100352.53;5030421;28;20076;-60
2021/08/20 10:15:11;;;;;;;6.47;5.80;;;;;;;31.51;31.43;100352.28;5030947;28;20049;-62
2021/08/20 10:17:38;;;;;;;7.80;5.90;;;;;;;30.92;31.53;100362.38;5027967;28;20737;-61
2021/08/20 10:20:08;;;;;;;6.40;5.80;;;;;;;30.88;31.08;100361.69;5023151;28;20058;-60
2021/08/20 10:22:37;;;;;;;7.95;6.47;;;;;;;31.99;29.59;100360.97;5026697;28;20052;-60
2021/08/20 10:25:08;;;;;;;6.15;5.63;;;;;;;34.06;27.18;100341.66;5017426;28;20494;-60
2021/08/20 10:27:41;;;;;;;5.95;4.90;;;;;;;34.33;26.95;100341.72;5018692;28;20053;-60
2021/08/20 10:30:10;;;;;;;5.90;5.30;;;;;;;34.28;26.49;100351.03;5030856;28;20409;-61
2021/08/20 10:32:37;;;;;;;6.70;4.63;;;;;;;32.93;27.17;100343.88;5026187;28;20060;-58
2021/08/20 10:35:06;;;;;;;5.88;5.22;;;;;;;34.45;25.11;100347.78;5031030;28;20053;-61
2021/08/20 10:37:34;;;;;;;5.45;4.95;;;;;;;36.09;23.20;100333.09;5027286;28;20053;-62
2021/08/20 10:40:23;;;;;;;4.97;4.47;;;;;;;36.66;23.70;100349.53;5029845;28;20065;-62
2021/08/20 10:42:52;;;;;;;6.15;4.85;;;;;;;37.67;22.24;100347.50;5042018;28;20057;-61
2021/08/20 10:45:19;;;;;;;5.43;4.15;;;;;;;36.35;24.24;100345.00;5021226;28;20049;-62
2021/08/20 10:47:48;;;;;;;5.15;4.65;;;;;;;37.89;22.54;100352.03;5043574;28;20056;-60
2021/08/20 10:50:17;;;;;;;5.00;4.30;;;;;;;37.24;23.20;100349.22;5034670;28;20080;-60
2021/08/20 10:52:47;;;;;;;6.22;4.82;;;;;;;38.58;22.60;100337.81;5040547;28;20495;-62
2021/08/20 10:55:20;;;;;;;8.05;4.85;;;;;;;40.47;19.40;100335.06;5027977;28;20053;-60
2021/08/20 10:58:09;;;;;;;6.00;4.40;;;;;;;39.27;20.47;100337.06;5035304;28;20041;-62
2021/08/20 11:00:56;;;;;;;5.60;4.47;;;;;;;38.15;21.80;100332.53;5033145;28;20510;-62
2021/08/20 11:03:52;;;;;;;4.13;3.72;;;;;;;36.49;23.61;100340.50;5033368;28;20056;-61
2021/08/20 11:06:47;;;;;;;4.75;4.22;;;;;;;35.92;23.33;100341.44;5028359;28;20054;-61
2021/08/20 11:09:31;;;;;;;5.13;4.32;;;;;;;34.76;25.32;100344.72;5050675;28;20064;-61
2021/08/20 11:12:03;;;;;;;4.50;4.10;;;;;;;34.48;25.63;100343.91;5037568;28;20482;-61
2021/08/20 11:14:36;;;;;;;4.60;3.95;;;;;;;33.22;28.56;100351.41;5029203;28;20053;-62
2021/08/20 11:17:05;;;;;;;4.95;3.97;;;;;;;32.73;29.04;100350.00;5031270;28;20065;-60
2021/08/20 11:19:52;;;;;;;4.88;4.22;;;;;;;31.99;30.22;100352.31;5023377;28;20052;-60
2021/08/20 11:22:22;;;;;;;4.47;3.95;;;;;;;31.35;30.63;100352.38;5016718;28;20054;-61
2021/08/20 11:25:10;;;;;;;3.90;2.97;;;;;;;31.21;30.66;100358.63;5021045;28;20081;-61